createdAt,value
2019-02-14T00:00:12.412Z,12.57
2019-02-14T00:02:41.267Z,12.20
2019-02-14T00:05:16.174Z,14.90
2019-02-14T00:07:40.511Z,12.37
2019-02-14T00:10:09.887Z,13.87
2019-02-14T00:12:38.730Z,11.27
2019-02-14T00:15:11.978Z,9.90
2019-02-14T00:17:40.747Z,9.97
2019-02-14T00:20:10.058Z,10.80
2019-02-14T00:22:40.558Z,10.67
2019-02-14T00:25:10.358Z,10.13
2019-02-14T00:27:39.121Z,11.30
2019-02-14T00:30:10.011Z,13.37
2019-02-14T00:32:38.776Z,11.90
2019-02-14T00:35:07.570Z,12.73
2019-02-14T00:37:36.347Z,12.53
2019-02-14T00:40:07.384Z,11.47
2019-02-14T00:42:36.140Z,11.90
2019-02-14T00:45:06.538Z,10.03
2019-02-14T00:47:35.296Z,12.33
2019-02-14T00:50:05.623Z,11.27
2019-02-14T00:52:34.367Z,10.87
2019-02-14T00:55:03.343Z,11.03
2019-02-14T00:57:32.082Z,9.60
2019-02-14T01:00:00.853Z,10.90
2019-02-14T01:02:29.671Z,10.97
2019-02-14T01:04:58.454Z,10.40
2019-02-14T01:07:27.221Z,10.53
2019-02-14T01:09:55.995Z,13.20
2019-02-14T01:12:24.747Z,13.20
2019-02-14T01:14:53.521Z,12.23
2019-02-14T01:17:22.513Z,11.10
2019-02-14T01:19:51.282Z,9.60
2019-02-14T01:22:20.055Z,10.37
2019-02-14T01:24:48.847Z,10.33
2019-02-14T01:27:17.595Z,10.70
2019-02-14T01:29:46.383Z,10.87
2019-02-14T01:32:15.298Z,11.77
2019-02-14T01:34:44.084Z,10.60
2019-02-14T01:37:12.834Z,10.93
2019-02-14T01:39:41.626Z,10.40
2019-02-14T01:42:10.462Z,8.87
2019-02-14T01:44:39.221Z,9.67
2019-02-14T01:47:08.055Z,10.47
2019-02-14T01:49:36.816Z,9.80
2019-02-14T01:52:05.591Z,10.10
2019-02-14T01:54:34.371Z,10.30
2019-02-14T01:57:03.228Z,10.23
2019-02-14T01:59:32.027Z,9.90
2019-02-14T02:02:00.806Z,9.90
2019-02-14T02:04:29.596Z,10.00
2019-02-14T02:06:58.380Z,9.80
2019-02-14T02:09:27.115Z,10.50
2019-02-14T02:11:55.901Z,11.23
2019-02-14T02:14:24.671Z,10.93
2019-02-14T02:16:53.440Z,9.50
2019-02-14T02:19:22.177Z,10.00
2019-02-14T02:21:50.972Z,10.93
2019-02-14T02:24:19.727Z,9.63
2019-02-14T02:26:48.500Z,10.20
2019-02-14T02:29:17.311Z,10.17
2019-02-14T02:31:46.064Z,10.93
2019-02-14T02:34:14.829Z,10.00
2019-02-14T02:36:43.596Z,9.83
2019-02-14T02:39:12.364Z,10.03
2019-02-14T02:41:41.204Z,9.53
2019-02-14T02:44:10.002Z,9.17
2019-02-14T02:46:38.751Z,9.23
2019-02-14T02:49:07.527Z,10.40
2019-02-14T02:51:36.329Z,9.17
2019-02-14T02:54:05.122Z,9.60
2019-02-14T02:56:33.891Z,10.77
2019-02-14T02:59:02.698Z,10.10
2019-02-14T03:01:31.459Z,8.63
2019-02-14T03:04:00.237Z,9.53
2019-02-14T03:06:29.016Z,9.90
2019-02-14T03:08:57.791Z,10.83
2019-02-14T03:11:26.600Z,9.37
2019-02-14T03:13:55.408Z,10.53
2019-02-14T03:16:24.211Z,10.53
2019-02-14T03:18:52.975Z,9.33
2019-02-14T03:21:21.712Z,9.53
2019-02-14T03:23:50.507Z,9.00
2019-02-14T03:26:20.772Z,9.80
2019-02-14T03:28:49.598Z,8.23
2019-02-14T03:31:18.329Z,9.63
2019-02-14T03:33:47.098Z,10.10
2019-02-14T03:36:19.057Z,8.70
2019-02-14T03:38:46.406Z,9.20
2019-02-14T03:41:15.145Z,8.37
2019-02-14T03:43:43.911Z,9.80
2019-02-14T03:46:12.698Z,9.80
2019-02-14T03:48:41.442Z,9.57
2019-02-14T03:51:10.214Z,10.60
2019-02-14T03:53:38.962Z,8.37
2019-02-14T03:56:07.742Z,10.60
2019-02-14T03:58:36.505Z,8.53
2019-02-14T04:01:05.267Z,9.00
2019-02-14T04:03:34.034Z,8.77
2019-02-14T04:06:02.811Z,10.33
2019-02-14T04:08:31.650Z,11.53
2019-02-14T04:11:02.063Z,8.87
2019-02-14T04:13:30.836Z,9.47
2019-02-14T04:15:59.609Z,10.90
2019-02-14T04:18:28.375Z,10.27
2019-02-14T04:20:57.256Z,10.40
2019-02-14T04:23:26.007Z,9.07
2019-02-14T04:25:54.781Z,11.07
2019-02-14T04:28:23.546Z,11.23
2019-02-14T04:30:52.327Z,9.80
2019-02-14T04:33:21.079Z,9.37
2019-02-14T04:35:49.836Z,12.37
2019-02-14T04:38:18.614Z,8.60
2019-02-14T04:40:47.367Z,10.97
2019-02-14T04:43:16.166Z,11.83
2019-02-14T04:45:44.913Z,8.63
2019-02-14T04:48:13.678Z,9.07
2019-02-14T04:50:42.449Z,8.27
2019-02-14T04:53:11.243Z,8.57
2019-02-14T04:55:40.029Z,10.20
2019-02-14T04:58:08.866Z,10.00
2019-02-14T05:00:37.642Z,10.53
2019-02-14T05:03:06.414Z,8.60
2019-02-14T05:05:35.174Z,8.67
2019-02-14T05:08:03.968Z,10.17
2019-02-14T05:10:32.727Z,9.20
2019-02-14T05:13:01.503Z,11.33
2019-02-14T05:15:30.264Z,9.00
2019-02-14T05:17:59.043Z,7.93
2019-02-14T05:20:27.891Z,8.60
2019-02-14T05:22:56.671Z,8.23
2019-02-14T05:25:25.431Z,8.73
2019-02-14T05:27:54.197Z,7.00
2019-02-14T05:30:23.023Z,9.20
2019-02-14T05:32:51.776Z,9.17
2019-02-14T05:35:20.544Z,9.77
2019-02-14T05:37:49.286Z,7.40
2019-02-14T05:40:18.049Z,7.97
2019-02-14T05:42:46.809Z,7.87
2019-02-14T05:45:15.641Z,7.27
2019-02-14T05:47:46.118Z,8.57
2019-02-14T05:50:15.086Z,9.23
2019-02-14T05:52:43.837Z,10.53
2019-02-14T05:55:12.789Z,7.67
2019-02-14T05:57:41.697Z,8.20
2019-02-14T06:00:16.082Z,7.03
2019-02-14T06:02:44.833Z,7.50
2019-02-14T06:05:13.614Z,7.23
2019-02-14T06:07:42.432Z,8.10
2019-02-14T06:10:11.648Z,11.23
2019-02-14T06:12:40.489Z,11.30
2019-02-14T06:15:12.777Z,10.50
2019-02-14T06:17:41.520Z,8.53
2019-02-14T06:20:11.444Z,11.80
2019-02-14T06:22:40.196Z,15.17
2019-02-14T06:25:10.539Z,11.80
2019-02-14T06:27:39.322Z,14.60
2019-02-14T06:30:15.219Z,13.70
2019-02-14T06:32:43.978Z,13.13
2019-02-14T06:35:12.910Z,13.97
2019-02-14T06:37:41.666Z,12.97
2019-02-14T06:40:14.581Z,12.43
2019-02-14T06:42:43.395Z,11.40
2019-02-14T06:45:14.565Z,11.13
2019-02-14T06:47:43.324Z,11.37
2019-02-14T06:50:12.099Z,7.93
2019-02-14T06:52:40.868Z,8.03
2019-02-14T06:55:10.080Z,9.43
2019-02-14T06:57:38.890Z,8.10
2019-02-14T07:00:10.991Z,12.80
2019-02-14T07:02:39.794Z,12.30
2019-02-14T07:05:10.014Z,9.97
2019-02-14T07:07:38.957Z,13.20
2019-02-14T07:10:09.560Z,15.80
2019-02-14T07:12:38.328Z,22.50
2019-02-14T07:15:10.086Z,24.07
2019-02-14T07:17:38.855Z,20.23
2019-02-14T07:20:15.806Z,18.87
2019-02-14T07:22:44.593Z,28.63
2019-02-14T07:25:13.353Z,27.67
2019-02-14T07:27:42.137Z,22.43
2019-02-14T07:30:16.590Z,15.90
2019-02-14T07:32:45.370Z,12.00
2019-02-14T07:35:14.117Z,8.37
2019-02-14T07:37:42.875Z,8.03
2019-02-14T07:40:13.350Z,6.93
2019-02-14T07:42:42.114Z,7.87
2019-02-14T07:45:13.099Z,10.13
2019-02-14T07:47:41.882Z,9.43
2019-02-14T07:50:12.088Z,11.73
2019-02-14T07:52:40.831Z,10.20
2019-02-14T07:55:13.610Z,10.27
2019-02-14T07:57:42.469Z,8.07
2019-02-14T08:00:13.276Z,9.07
2019-02-14T08:02:42.036Z,9.53
2019-02-14T08:05:11.375Z,9.03
2019-02-14T08:07:40.122Z,7.17
2019-02-14T08:10:12.163Z,7.83
2019-02-14T08:12:40.883Z,5.97
2019-02-14T08:15:13.716Z,7.33
2019-02-14T08:17:42.468Z,7.67
2019-02-14T08:20:18.797Z,6.17
2019-02-14T08:22:47.559Z,7.80
2019-02-14T08:25:16.353Z,7.63
2019-02-14T08:27:45.114Z,8.43
2019-02-14T08:30:16.077Z,7.97
2019-02-14T08:32:44.824Z,6.87
2019-02-14T08:35:13.593Z,8.87
2019-02-14T08:37:45.494Z,7.93
2019-02-14T08:40:26.952Z,8.80
2019-02-14T08:42:55.698Z,12.53
2019-02-14T08:45:24.463Z,18.60
2019-02-14T08:47:53.242Z,23.73
2019-02-14T08:50:22.007Z,25.00
2019-02-14T08:52:50.788Z,23.33
2019-02-14T08:55:19.590Z,24.90
2019-02-14T08:57:48.396Z,21.73
2019-02-14T09:00:17.438Z,15.33
2019-02-14T09:02:46.194Z,14.63
2019-02-14T09:05:14.987Z,9.33
2019-02-14T09:07:43.736Z,13.50
2019-02-14T09:10:14.051Z,14.33
2019-02-14T09:12:42.801Z,10.87
2019-02-14T09:15:13.216Z,11.93
2019-02-14T09:17:42.015Z,11.30
2019-02-14T09:20:18.911Z,11.97
2019-02-14T09:22:47.698Z,8.23
2019-02-14T09:25:16.583Z,9.27
2019-02-14T09:27:45.374Z,5.77
2019-02-14T09:30:14.558Z,6.73
2019-02-14T09:32:43.401Z,8.23
2019-02-14T09:35:12.148Z,7.57
2019-02-14T09:37:40.932Z,7.27
2019-02-14T09:40:12.369Z,5.83
2019-02-14T09:42:41.148Z,7.40
2019-02-14T09:45:12.181Z,11.43
2019-02-14T09:47:41.017Z,11.13
2019-02-14T09:50:14.562Z,15.27
2019-02-14T09:52:43.355Z,8.07
2019-02-14T09:55:13.986Z,9.83
2019-02-14T09:57:42.837Z,9.50
2019-02-14T10:00:18.836Z,8.90
2019-02-14T10:02:47.684Z,11.30
2019-02-14T10:05:16.434Z,7.63
2019-02-14T10:07:45.192Z,11.03
2019-02-14T10:10:16.651Z,8.47
2019-02-14T10:12:45.419Z,8.73
2019-02-14T10:15:14.167Z,9.87
2019-02-14T10:17:42.959Z,9.07
2019-02-14T10:20:13.877Z,11.80
2019-02-14T10:22:42.634Z,7.90
2019-02-14T10:25:11.853Z,6.17
2019-02-14T10:27:40.622Z,7.57
2019-02-14T10:30:15.255Z,7.17
2019-02-14T10:32:44.026Z,5.60
2019-02-14T10:35:12.777Z,5.00
2019-02-14T10:37:41.586Z,8.93
2019-02-14T10:40:12.564Z,9.53
2019-02-14T10:42:41.346Z,5.20
2019-02-14T10:45:15.514Z,5.93
2019-02-14T10:47:44.282Z,9.17
2019-02-14T10:50:14.396Z,6.00
2019-02-14T10:52:43.986Z,4.87
2019-02-14T10:55:14.390Z,5.33
2019-02-14T10:57:43.198Z,8.20
2019-02-14T11:00:19.565Z,6.23
2019-02-14T11:02:48.429Z,6.10
2019-02-14T11:05:17.642Z,4.60
2019-02-14T11:07:46.433Z,3.77
2019-02-14T11:10:15.778Z,6.00
2019-02-14T11:12:44.557Z,3.97
2019-02-14T11:15:24.720Z,3.53
2019-02-14T11:17:53.482Z,3.07
2019-02-14T11:20:22.251Z,2.50
2019-02-14T11:22:51.028Z,3.47
2019-02-14T11:25:29.039Z,3.13
2019-02-14T11:27:57.818Z,4.23
2019-02-14T11:30:26.606Z,2.00
2019-02-14T11:32:55.357Z,3.17
2019-02-14T11:35:24.138Z,3.70
2019-02-14T11:37:52.979Z,2.00
2019-02-14T11:40:21.753Z,3.70
2019-02-14T11:42:50.514Z,4.03
2019-02-14T11:45:21.507Z,5.80
2019-02-14T11:47:50.263Z,3.07
2019-02-14T11:50:19.041Z,3.97
2019-02-14T11:52:47.818Z,2.97
2019-02-14T11:55:16.660Z,2.53
2019-02-14T11:57:45.446Z,3.60
2019-02-14T12:00:20.522Z,2.50
2019-02-14T12:02:55.781Z,3.63
2019-02-14T12:05:19.863Z,1.70
2019-02-14T12:07:48.614Z,1.67
2019-02-14T12:10:17.435Z,1.80
2019-02-14T12:12:46.170Z,2.33
2019-02-14T12:15:14.944Z,1.73
2019-02-14T12:17:43.708Z,2.90
2019-02-14T12:20:16.045Z,1.80
2019-02-14T12:22:47.164Z,1.53
2019-02-14T12:25:27.702Z,2.77
2019-02-14T12:27:56.461Z,1.50
2019-02-14T12:30:25.584Z,1.83
2019-02-14T12:32:54.338Z,1.27
2019-02-14T12:35:23.109Z,1.00
2019-02-14T12:37:51.965Z,1.47
2019-02-14T12:40:20.730Z,2.50
2019-02-14T12:42:49.652Z,1.63
2019-02-14T12:45:26.063Z,2.10
2019-02-14T12:47:54.827Z,1.50
2019-02-14T12:50:23.582Z,1.60
2019-02-14T12:52:52.405Z,1.40
2019-02-14T12:55:27.212Z,1.87
2019-02-14T12:57:55.989Z,2.70
2019-02-14T13:00:24.827Z,2.67
2019-02-14T13:02:53.644Z,1.83
2019-02-14T13:05:22.403Z,2.13
2019-02-14T13:07:51.209Z,1.40
2019-02-14T13:10:19.961Z,2.90
2019-02-14T13:12:48.744Z,1.50
2019-02-14T13:15:23.459Z,2.90
2019-02-14T13:17:52.297Z,3.17
2019-02-14T13:20:21.240Z,0.87
2019-02-14T13:22:50.094Z,1.53
2019-02-14T13:25:18.867Z,3.70
2019-02-14T13:27:47.664Z,1.30
2019-02-14T13:30:19.719Z,1.00
2019-02-14T13:32:48.549Z,1.43
2019-02-14T13:35:17.454Z,1.10
2019-02-14T13:37:46.213Z,1.37
2019-02-14T13:40:15.004Z,2.03
2019-02-14T13:42:43.775Z,1.33
2019-02-14T13:45:21.490Z,0.90
2019-02-14T13:47:50.319Z,1.27
2019-02-14T13:50:19.120Z,1.23
2019-02-14T13:52:47.871Z,0.90
2019-02-14T13:55:16.670Z,0.70
2019-02-14T13:57:45.498Z,2.03
2019-02-14T14:00:28.838Z,1.77
2019-02-14T14:02:57.592Z,1.40
2019-02-14T14:05:26.403Z,1.53
2019-02-14T14:07:55.151Z,1.40
2019-02-14T14:10:23.968Z,2.17
2019-02-14T14:12:52.699Z,1.83
2019-02-14T14:15:21.471Z,1.30
2019-02-14T14:17:50.232Z,1.03
2019-02-14T14:20:19.046Z,1.73
2019-02-14T14:22:47.948Z,1.17
2019-02-14T14:25:16.708Z,1.50
2019-02-14T14:27:47.236Z,1.30
2019-02-14T14:30:25.754Z,1.37
2019-02-14T14:32:59.170Z,1.50
2019-02-14T14:35:28.072Z,1.20
2019-02-14T14:37:56.859Z,2.87
2019-02-14T14:40:25.874Z,0.80
2019-02-14T14:42:56.272Z,3.50
2019-02-14T14:45:35.889Z,2.60
2019-02-14T14:48:06.276Z,1.27
2019-02-14T14:50:35.025Z,0.80
2019-02-14T14:53:03.824Z,0.70
2019-02-14T14:55:32.733Z,1.00
2019-02-14T14:58:01.527Z,1.20
2019-02-14T15:00:30.287Z,2.53
2019-02-14T15:02:59.078Z,1.03
2019-02-14T15:05:27.876Z,0.83
2019-02-14T15:07:56.663Z,1.40
2019-02-14T15:10:25.407Z,1.60
2019-02-14T15:12:54.204Z,1.13
2019-02-14T15:15:22.974Z,0.97
2019-02-14T15:17:51.765Z,0.83
2019-02-14T15:20:20.568Z,1.20
2019-02-14T15:22:49.376Z,1.60
2019-02-14T15:25:18.139Z,1.13
2019-02-14T15:27:46.916Z,4.73
2019-02-14T15:30:15.678Z,4.83
2019-02-14T15:32:44.491Z,3.17
2019-02-14T15:35:13.248Z,1.50
2019-02-14T15:37:44.224Z,1.10
2019-02-14T15:40:12.476Z,1.27
2019-02-14T15:42:41.274Z,1.80
2019-02-14T15:45:10.021Z,1.60
2019-02-14T15:47:38.800Z,1.60
2019-02-14T15:50:09.036Z,3.17
2019-02-14T15:52:37.891Z,1.70
2019-02-14T15:55:07.504Z,3.83
2019-02-14T15:57:36.261Z,2.40
2019-02-14T16:00:10.609Z,1.60
2019-02-14T16:02:38.811Z,1.63
2019-02-14T16:05:08.077Z,1.83
2019-02-14T16:07:38.584Z,2.10
2019-02-14T16:10:17.584Z,1.87
2019-02-14T16:12:41.325Z,2.97
2019-02-14T16:15:10.220Z,3.20
2019-02-14T16:17:39.994Z,2.97
2019-02-14T16:20:09.308Z,1.83
2019-02-14T16:22:39.621Z,3.13
2019-02-14T16:25:08.524Z,1.63
2019-02-14T16:27:37.301Z,2.43
2019-02-14T16:30:09.514Z,2.37
2019-02-14T16:32:38.365Z,2.87
2019-02-14T16:35:08.794Z,4.07
2019-02-14T16:37:40.101Z,2.90
2019-02-14T16:40:09.680Z,3.07
2019-02-14T16:42:38.457Z,2.30
2019-02-14T16:45:08.273Z,2.60
2019-02-14T16:47:37.093Z,2.10
2019-02-14T16:50:08.791Z,1.50
2019-02-14T16:52:39.472Z,1.60
2019-02-14T16:55:08.279Z,3.43
2019-02-14T16:57:37.060Z,1.73
2019-02-14T17:00:09.821Z,3.67
2019-02-14T17:02:38.746Z,4.43
2019-02-14T17:05:08.927Z,4.00
2019-02-14T17:07:37.789Z,3.20
2019-02-14T17:10:09.808Z,2.23
2019-02-14T17:12:38.595Z,3.00
2019-02-14T17:15:09.399Z,2.47
2019-02-14T17:17:38.230Z,3.87
2019-02-14T17:20:11.166Z,2.93
2019-02-14T17:22:40.020Z,3.10
2019-02-14T17:25:08.789Z,2.90
2019-02-14T17:27:37.597Z,2.77
2019-02-14T17:30:08.489Z,4.30
2019-02-14T17:32:40.179Z,3.83
2019-02-14T17:35:08.965Z,2.80
2019-02-14T17:37:39.478Z,3.93
2019-02-14T17:40:09.603Z,5.73
2019-02-14T17:42:38.511Z,5.07
2019-02-14T17:45:09.506Z,4.17
2019-02-14T17:47:41.720Z,8.60
2019-02-14T17:50:11.830Z,5.60
2019-02-14T17:52:40.618Z,7.03
2019-02-14T17:55:10.078Z,6.50
2019-02-14T17:57:38.863Z,4.27
2019-02-14T18:00:11.047Z,6.43
2019-02-14T18:02:40.080Z,3.73
2019-02-14T18:05:09.635Z,3.47
2019-02-14T18:07:38.421Z,4.47
2019-02-14T18:10:10.283Z,4.13
2019-02-14T18:12:39.131Z,2.30
2019-02-14T18:15:10.774Z,2.87
2019-02-14T18:17:39.624Z,2.57
2019-02-14T18:20:10.422Z,2.67
2019-02-14T18:22:39.345Z,3.73
2019-02-14T18:25:10.797Z,3.33
2019-02-14T18:27:39.611Z,4.90
2019-02-14T18:30:10.685Z,6.03
2019-02-14T18:32:39.443Z,3.97
2019-02-14T18:35:12.406Z,4.00
2019-02-14T18:37:41.182Z,3.33
2019-02-14T18:40:10.942Z,4.83
2019-02-14T18:42:44.973Z,4.37
2019-02-14T18:45:15.493Z,3.67
2019-02-14T18:47:44.334Z,3.70
2019-02-14T18:50:13.977Z,4.30
2019-02-14T18:52:42.828Z,3.93
2019-02-14T18:55:12.013Z,5.63
2019-02-14T18:57:40.766Z,3.60
2019-02-14T19:00:12.497Z,3.53
2019-02-14T19:02:41.489Z,3.77
2019-02-14T19:05:11.317Z,5.17
2019-02-14T19:07:40.266Z,6.20
2019-02-14T19:10:12.073Z,4.27
2019-02-14T19:12:40.864Z,6.90
2019-02-14T19:15:13.281Z,6.27
2019-02-14T19:17:42.084Z,4.07
2019-02-14T19:20:11.535Z,3.40
2019-02-14T19:22:41.573Z,4.80
2019-02-14T19:25:10.437Z,4.17
2019-02-14T19:27:40.867Z,3.27
2019-02-14T19:30:10.961Z,4.53
2019-02-14T19:32:39.769Z,3.87
2019-02-14T19:35:09.250Z,2.50
2019-02-14T19:37:38.113Z,3.57
2019-02-14T19:40:08.192Z,3.07
2019-02-14T19:42:37.048Z,5.83
2019-02-14T19:45:11.240Z,4.23
2019-02-14T19:47:40.032Z,2.90
2019-02-14T19:50:11.417Z,3.70
2019-02-14T19:52:40.281Z,2.80
2019-02-14T19:55:09.539Z,4.90
2019-02-14T19:57:38.356Z,2.80
2019-02-14T20:00:12.185Z,3.10
2019-02-14T20:02:41.036Z,2.80
2019-02-14T20:05:10.574Z,2.60
2019-02-14T20:07:39.438Z,4.07
2019-02-14T20:10:13.850Z,3.20
2019-02-14T20:12:42.744Z,3.07
2019-02-14T20:15:17.733Z,3.67
2019-02-14T20:17:46.535Z,3.13
2019-02-14T20:20:15.346Z,2.27
2019-02-14T20:22:44.148Z,3.27
2019-02-14T20:25:18.830Z,1.30
2019-02-14T20:27:49.892Z,2.10
2019-02-14T20:30:18.064Z,1.60
2019-02-14T20:32:47.048Z,2.60
2019-02-14T20:35:15.873Z,3.03
2019-02-14T20:37:44.698Z,2.53
2019-02-14T20:40:13.533Z,2.67
2019-02-14T20:42:42.282Z,5.27
2019-02-14T20:45:13.344Z,3.87
2019-02-14T20:47:42.132Z,7.07
2019-02-14T20:50:13.325Z,5.57
2019-02-14T20:52:43.733Z,4.37
2019-02-14T20:55:15.651Z,5.93
2019-02-14T20:57:44.658Z,5.53
2019-02-14T21:00:30.647Z,6.97
2019-02-14T21:02:59.390Z,5.70
2019-02-14T21:05:28.407Z,5.10
2019-02-14T21:07:57.188Z,4.40
2019-02-14T21:10:26.132Z,3.83
2019-02-14T21:12:54.879Z,3.23
2019-02-14T21:15:25.439Z,3.47
2019-02-14T21:17:54.188Z,2.50
2019-02-14T21:20:22.983Z,4.17
2019-02-14T21:22:51.794Z,2.50
2019-02-14T21:25:23.078Z,2.53
2019-02-14T21:27:52.519Z,3.00
2019-02-14T21:30:21.441Z,1.57
2019-02-14T21:32:50.231Z,2.17
2019-02-14T21:35:19.107Z,1.50
2019-02-14T21:37:47.928Z,1.57
2019-02-14T21:40:18.430Z,1.50
2019-02-14T21:42:48.883Z,1.97
2019-02-14T21:45:17.828Z,2.10
2019-02-14T21:47:46.622Z,1.67
2019-02-14T21:50:17.724Z,2.30
2019-02-14T21:52:46.934Z,2.00
2019-02-14T21:55:16.182Z,3.37
2019-02-14T21:57:45.829Z,2.50
2019-02-14T22:00:20.573Z,2.80
2019-02-14T22:02:49.673Z,2.53
2019-02-14T22:05:24.464Z,2.40
2019-02-14T22:07:48.992Z,3.10
2019-02-14T22:10:17.988Z,3.20
2019-02-14T22:12:51.529Z,3.00
2019-02-14T22:15:27.813Z,2.57
2019-02-14T22:17:56.712Z,3.67
2019-02-14T22:20:25.485Z,3.50
2019-02-14T22:22:54.294Z,4.23
2019-02-14T22:25:23.047Z,4.37
2019-02-14T22:27:51.905Z,4.10
2019-02-14T22:30:20.728Z,4.30
2019-02-14T22:32:49.497Z,3.37
2019-02-14T22:35:18.252Z,3.47
2019-02-14T22:37:47.099Z,2.50
2019-02-14T22:40:15.869Z,2.60
2019-02-14T22:42:47.670Z,2.57
2019-02-14T22:45:15.316Z,2.83
2019-02-14T22:47:47.048Z,2.33
2019-02-14T22:50:15.791Z,2.00
2019-02-14T22:52:44.558Z,1.70
2019-02-14T22:55:13.966Z,2.00
2019-02-14T22:57:42.739Z,1.97
2019-02-14T23:00:28.519Z,3.27
2019-02-14T23:02:57.261Z,2.20
2019-02-14T23:05:26.048Z,1.57
2019-02-14T23:07:54.804Z,1.10
2019-02-14T23:10:23.579Z,1.10
2019-02-14T23:12:55.763Z,2.83
2019-02-14T23:15:22.789Z,1.83
2019-02-14T23:17:51.534Z,0.87
2019-02-14T23:20:20.306Z,1.70
2019-02-14T23:22:49.046Z,1.00
2019-02-14T23:25:17.894Z,0.93
2019-02-14T23:27:46.682Z,2.27
2019-02-14T23:30:15.458Z,3.33
2019-02-14T23:32:44.215Z,1.30
2019-02-14T23:35:14.089Z,1.13
2019-02-14T23:37:42.882Z,1.60
2019-02-14T23:40:11.646Z,2.13
2019-02-14T23:42:40.399Z,1.30
2019-02-14T23:45:10.002Z,1.13
2019-02-14T23:47:38.738Z,1.10
2019-02-14T23:50:10.912Z,2.23
2019-02-14T23:52:39.706Z,1.53
2019-02-14T23:55:08.905Z,1.30
2019-02-14T23:57:37.655Z,2.63
